LAN186D SCEL-SCAR
Flight info
| Callsign | LAN186D |
|---|---|
| Flight time | N/A |
| Altitude | 34000 |
| Route | TENUT UQ802 GAXIR DCT REPUK |
| Aircraft | A321/M-SDE3FGHIRWY/LB1 |
Departure
| Time | N/A |
|---|---|
| Airport | Comodoro Arturo Merino Benítez International Airport (SCEL) |
Arrival
| Time | 2026-04-25 22:04 |
|---|---|
| Airport | Chacalluta International Airport (SCAR) |
| Time | Latitude | Longitude | Altitude | Speed | Heading |
|---|---|---|---|---|---|
| 2026-04-25 21:16 | -24.47419 | -70.56257 | 34057 ft | 449 kts | 353° |
| 2026-04-25 21:16 | -24.41191 | -70.56282 | 34062 ft | 447 kts | 353° |
| 2026-04-25 21:16 | -24.34960 | -70.56328 | 35191 ft | 446 kts | 359° |
| 2026-04-25 21:16 | -24.28735 | -70.56371 | 34110 ft | 448 kts | 354° |
| 2026-04-25 21:17 | -24.16289 | -70.56437 | 34063 ft | 446 kts | 354° |
| 2026-04-25 21:17 | -24.10074 | -70.56478 | 35198 ft | 446 kts | 359° |
| 2026-04-25 21:17 | -24.03852 | -70.56526 | 34109 ft | 447 kts | 353° |
| 2026-04-25 21:18 | -23.91505 | -70.56601 | 34053 ft | 446 kts | 354° |
| 2026-04-25 21:18 | -23.85297 | -70.56633 | 34258 ft | 448 kts | 353° |
| 2026-04-25 21:18 | -23.79050 | -70.56672 | 34706 ft | 447 kts | 353° |
| 2026-04-25 21:19 | -23.72837 | -70.56674 | 35093 ft | 446 kts | 354° |
| 2026-04-25 21:19 | -23.66677 | -70.56628 | 35610 ft | 442 kts | 354° |
| 2026-04-25 21:19 | -23.60522 | -70.56587 | 36010 ft | 441 kts | 354° |
| 2026-04-25 21:19 | -23.54392 | -70.56561 | 36028 ft | 440 kts | 354° |
| 2026-04-25 21:20 | -23.44220 | -70.56530 | 36011 ft | 440 kts | 354° |
| 2026-04-25 21:20 | -23.29921 | -70.56458 | 36026 ft | 439 kts | 354° |
| 2026-04-25 21:21 | -23.17787 | -70.56410 | 36018 ft | 439 kts | 354° |
| 2026-04-25 21:21 | -23.05542 | -70.56340 | 36020 ft | 441 kts | 355° |
| 2026-04-25 21:22 | -22.85065 | -70.56249 | 36042 ft | 442 kts | 355° |
| 2026-04-25 21:22 | -22.73276 | -70.55994 | 35832 ft | 447 kts | 1° |
| 2026-04-25 21:22 | -22.70108 | -70.55926 | 33633 ft | 453 kts | 356° |
| 2026-04-25 21:23 | -22.60662 | -70.55745 | 31992 ft | 446 kts | 356° |
| 2026-04-25 21:23 | -22.48558 | -70.55512 | 30688 ft | 421 kts | 357° |
| 2026-04-25 21:23 | -22.36802 | -70.55293 | 29558 ft | 435 kts | 360° |
| 2026-04-25 21:23 | -22.33770 | -70.55240 | 29666 ft | 439 kts | 357° |
| 2026-04-25 21:24 | -22.30683 | -70.55185 | 29431 ft | 447 kts | 358° |
| 2026-04-25 21:24 | -22.27561 | -70.55128 | 29335 ft | 451 kts | 358° |
| 2026-04-25 21:24 | -22.24376 | -70.55068 | 30408 ft | 453 kts | 359° |
| 2026-04-25 21:24 | -22.18098 | -70.54946 | 28845 ft | 456 kts | 358° |
| 2026-04-25 21:25 | -22.11773 | -70.54827 | 28560 ft | 456 kts | 358° |
| 2026-04-25 21:25 | -22.05422 | -70.54697 | 28369 ft | 457 kts | 358° |
| 2026-04-25 21:25 | -21.99049 | -70.54566 | 29221 ft | 461 kts | 0° |
| 2026-04-25 21:25 | -21.93654 | -70.54466 | 26980 ft | 469 kts | 358° |
| 2026-04-25 21:26 | -21.90438 | -70.54407 | 27654 ft | 460 kts | 359° |
| 2026-04-25 21:26 | -21.85288 | -70.54333 | 28000 ft | 463 kts | 358° |
| 2026-04-25 21:26 | -21.78543 | -70.54306 | 28000 ft | 461 kts | 358° |
| 2026-04-25 21:27 | -21.75352 | -70.54300 | 27319 ft | 459 kts | 358° |
| 2026-04-25 21:27 | -21.72139 | -70.54294 | 26453 ft | 463 kts | 358° |
| 2026-04-25 21:27 | -21.68900 | -70.54283 | 26008 ft | 469 kts | 358° |
| 2026-04-25 21:27 | -21.65615 | -70.54267 | 25563 ft | 473 kts | 358° |
| 2026-04-25 21:28 | -21.62320 | -70.54250 | 24690 ft | 478 kts | 358° |
| 2026-04-25 21:28 | -21.58955 | -70.54234 | 23686 ft | 485 kts | 359° |
| 2026-04-25 21:28 | -21.55589 | -70.54211 | 22833 ft | 483 kts | 358° |
| 2026-04-25 21:28 | -21.49633 | -70.54162 | 21500 ft | 474 kts | 358° |
| 2026-04-25 21:29 | -21.43299 | -70.54124 | 20926 ft | 478 kts | 358° |
| 2026-04-25 21:29 | -21.39960 | -70.54110 | 21026 ft | 482 kts | 358° |
| 2026-04-25 21:29 | -21.36596 | -70.54095 | 21906 ft | 485 kts | 360° |
| 2026-04-25 21:29 | -21.33208 | -70.54074 | 20996 ft | 485 kts | 359° |
| 2026-04-25 21:30 | -21.29850 | -70.54049 | 21018 ft | 480 kts | 358° |
| 2026-04-25 21:30 | -21.26519 | -70.54028 | 21019 ft | 477 kts | 358° |
| 2026-04-25 21:30 | -21.23218 | -70.54013 | 21020 ft | 476 kts | 359° |
| 2026-04-25 21:30 | -21.21020 | -70.54002 | 21019 ft | 476 kts | 359° |
| 2026-04-25 21:31 | -21.16588 | -70.53964 | 21026 ft | 476 kts | 359° |
| 2026-04-25 21:31 | -21.13318 | -70.53930 | 21022 ft | 478 kts | 359° |
| 2026-04-25 21:31 | -21.07265 | -70.53889 | 21912 ft | 487 kts | 0° |
| 2026-04-25 21:31 | -21.00546 | -70.53866 | 21142 ft | 471 kts | 359° |
| 2026-04-25 21:32 | -20.94250 | -70.53836 | 20536 ft | 446 kts | 359° |
| 2026-04-25 21:32 | -20.88190 | -70.53802 | 19960 ft | 421 kts | 359° |
| 2026-04-25 21:32 | -20.82589 | -70.53771 | 20264 ft | 385 kts | 360° |
| 2026-04-25 21:32 | -20.77385 | -70.53747 | 18686 ft | 364 kts | 358° |
| 2026-04-25 21:33 | -20.72524 | -70.53717 | 17891 ft | 344 kts | 358° |
| 2026-04-25 21:33 | -20.67859 | -70.53693 | 17046 ft | 327 kts | 358° |
| 2026-04-25 21:33 | -20.63410 | -70.53667 | 16857 ft | 314 kts | 360° |
| 2026-04-25 21:33 | -20.59015 | -70.53643 | 15426 ft | 311 kts | 358° |
| 2026-04-25 21:34 | -20.54729 | -70.53625 | 14534 ft | 310 kts | 358° |
| 2026-04-25 21:34 | -20.50354 | -70.53602 | 13399 ft | 321 kts | 359° |
| 2026-04-25 21:34 | -20.45684 | -70.53575 | 11603 ft | 348 kts | 360° |
| 2026-04-25 21:34 | -20.40667 | -70.53542 | 10143 ft | 359 kts | 359° |
| 2026-04-25 21:35 | -20.35933 | -70.53507 | 9995 ft | 327 kts | 360° |
| 2026-04-25 21:35 | -20.31613 | -70.53486 | 10007 ft | 296 kts | 359° |
| 2026-04-25 21:35 | -20.27490 | -70.53471 | 10023 ft | 297 kts | 360° |
| 2026-04-25 21:35 | -20.23346 | -70.53448 | 10018 ft | 298 kts | 359° |
| 2026-04-25 21:36 | -20.19208 | -70.53417 | 10015 ft | 297 kts | 359° |
| 2026-04-25 21:36 | -20.15070 | -70.53389 | 10015 ft | 297 kts | 359° |
| 2026-04-25 21:36 | -20.10933 | -70.53374 | 10012 ft | 297 kts | 359° |
| 2026-04-25 21:36 | -20.06800 | -70.53356 | 10014 ft | 297 kts | 359° |
| 2026-04-25 21:37 | -20.02660 | -70.53337 | 10018 ft | 298 kts | 359° |
| 2026-04-25 21:37 | -19.99921 | -70.53323 | 10019 ft | 298 kts | 359° |
| 2026-04-25 21:37 | -19.94424 | -70.53289 | 10018 ft | 298 kts | 360° |
| 2026-04-25 21:37 | -19.90280 | -70.53265 | 10019 ft | 298 kts | 359° |
| 2026-04-25 21:38 | -19.86122 | -70.53241 | 10019 ft | 298 kts | 359° |
| 2026-04-25 21:38 | -19.81977 | -70.53221 | 10019 ft | 298 kts | 359° |
| 2026-04-25 21:38 | -19.77824 | -70.53194 | 10021 ft | 298 kts | 359° |
| 2026-04-25 21:38 | -19.73680 | -70.53171 | 10019 ft | 298 kts | 359° |
| 2026-04-25 21:39 | -19.69525 | -70.53152 | 10019 ft | 299 kts | 359° |
| 2026-04-25 21:39 | -19.65411 | -70.53125 | 10018 ft | 299 kts | 359° |
| 2026-04-25 21:39 | -19.61250 | -70.53100 | 10015 ft | 299 kts | 359° |
| 2026-04-25 21:39 | -19.57087 | -70.53076 | 10018 ft | 299 kts | 360° |
| 2026-04-25 21:40 | -19.52924 | -70.53051 | 10018 ft | 299 kts | 359° |
| 2026-04-25 21:40 | -19.48760 | -70.53029 | 10019 ft | 299 kts | 359° |
| 2026-04-25 21:40 | -19.44589 | -70.53014 | 10018 ft | 299 kts | 359° |
| 2026-04-25 21:40 | -19.40452 | -70.52579 | 10019 ft | 300 kts | 9° |
| 2026-04-25 21:41 | -19.36335 | -70.51774 | 10016 ft | 302 kts | 10° |
| 2026-04-25 21:41 | -19.32212 | -70.50977 | 10017 ft | 302 kts | 9° |
| 2026-04-25 21:41 | -19.28120 | -70.50186 | 10015 ft | 302 kts | 9° |
| 2026-04-25 21:41 | -19.23986 | -70.49393 | 10017 ft | 302 kts | 9° |
| 2026-04-25 21:42 | -19.19835 | -70.48596 | 10013 ft | 303 kts | 10° |
| 2026-04-25 21:42 | -19.15697 | -70.47802 | 10015 ft | 302 kts | 9° |
| 2026-04-25 21:42 | -19.11541 | -70.47007 | 10019 ft | 303 kts | 9° |
| 2026-04-25 21:42 | -19.07396 | -70.46208 | 10023 ft | 302 kts | 9° |
| 2026-04-25 21:43 | -19.03254 | -70.45414 | 10021 ft | 303 kts | 10° |
| 2026-04-25 21:43 | -18.99112 | -70.44620 | 10019 ft | 303 kts | 10° |
| 2026-04-25 21:43 | -18.94944 | -70.43823 | 10016 ft | 304 kts | 10° |
| 2026-04-25 21:43 | -18.90800 | -70.43028 | 10017 ft | 303 kts | 10° |
| 2026-04-25 21:44 | -18.86634 | -70.42227 | 10018 ft | 304 kts | 10° |
| 2026-04-25 21:44 | -18.82494 | -70.41430 | 10018 ft | 303 kts | 10° |
| 2026-04-25 21:44 | -18.75550 | -70.40097 | 9976 ft | 301 kts | 10° |
| 2026-04-25 21:45 | -18.73544 | -70.39468 | 10006 ft | 302 kts | 28° |
| 2026-04-25 21:45 | -18.72405 | -70.38639 | 9849 ft | 300 kts | 45° |
| 2026-04-25 21:45 | -18.71035 | -70.36172 | 9576 ft | 293 kts | 78° |
| 2026-04-25 21:45 | -18.71018 | -70.34030 | 8841 ft | 294 kts | 106° |
| 2026-04-25 21:46 | -18.71878 | -70.32125 | 8346 ft | 293 kts | 131° |
| 2026-04-25 21:46 | -18.73483 | -70.30779 | 7877 ft | 293 kts | 156° |
| 2026-04-25 21:46 | -18.75400 | -70.30146 | 7409 ft | 295 kts | 166° |
| 2026-04-25 21:46 | -18.77425 | -70.29783 | 6926 ft | 297 kts | 181° |
| 2026-04-25 21:47 | -18.79411 | -70.30253 | 6456 ft | 289 kts | 206° |
| 2026-04-25 21:47 | -18.80967 | -70.31545 | 5738 ft | 287 kts | 234° |
| 2026-04-25 21:47 | -18.81760 | -70.33364 | 5560 ft | 262 kts | 251° |
| 2026-04-25 21:47 | -18.82322 | -70.35169 | 4945 ft | 257 kts | 258° |
| 2026-04-25 21:48 | -18.82282 | -70.37005 | 4441 ft | 245 kts | 289° |
| 2026-04-25 21:48 | -18.81415 | -70.38466 | 3974 ft | 233 kts | 316° |
| 2026-04-25 21:48 | -18.80367 | -70.39709 | 3592 ft | 222 kts | 300° |
| 2026-04-25 21:48 | -18.79924 | -70.41245 | 3101 ft | 219 kts | 279° |
| 2026-04-25 21:49 | -18.79843 | -70.42844 | 2693 ft | 219 kts | 258° |
| 2026-04-25 21:49 | -18.80470 | -70.44277 | 2361 ft | 215 kts | 230° |
| 2026-04-25 21:49 | -18.81685 | -70.45122 | 2064 ft | 209 kts | 193° |
| 2026-04-25 21:49 | -18.83128 | -70.45050 | 2035 ft | 212 kts | 166° |
| 2026-04-25 21:50 | -18.84382 | -70.44285 | 2015 ft | 212 kts | 133° |
| 2026-04-25 21:50 | -18.85031 | -70.42885 | 2019 ft | 216 kts | 102° |
| 2026-04-25 21:50 | -18.84824 | -70.41342 | 2156 ft | 213 kts | 61° |
| 2026-04-25 21:50 | -18.84188 | -70.40626 | 2298 ft | 195 kts | 30° |
| 2026-04-25 21:51 | -18.82520 | -70.40400 | 2305 ft | 177 kts | 359° |
| 2026-04-25 21:51 | -18.81392 | -70.40380 | 2191 ft | 173 kts | 3° |
| 2026-04-25 21:51 | -18.80181 | -70.40315 | 2167 ft | 171 kts | 2° |
| 2026-04-25 21:51 | -18.79053 | -70.40251 | 2308 ft | 156 kts | 4° |
| 2026-04-25 21:52 | -18.78009 | -70.40162 | 2346 ft | 148 kts | 6° |
| 2026-04-25 21:52 | -18.76950 | -70.40071 | 2405 ft | 156 kts | 4° |
| 2026-04-25 21:52 | -18.75866 | -70.40016 | 2513 ft | 158 kts | 2° |
| 2026-04-25 21:52 | -18.74745 | -70.39929 | 2508 ft | 168 kts | 4° |
| 2026-04-25 21:53 | -18.73564 | -70.39830 | 2704 ft | 165 kts | 6° |
| 2026-04-25 21:53 | -18.72458 | -70.39689 | 2938 ft | 160 kts | 6° |
| 2026-04-25 21:53 | -18.71377 | -70.39562 | 3080 ft | 156 kts | 4° |
| 2026-04-25 21:53 | -18.70291 | -70.39488 | 3107 ft | 157 kts | 5° |
| 2026-04-25 21:54 | -18.69199 | -70.39314 | 3104 ft | 160 kts | 11° |
| 2026-04-25 21:54 | -18.68137 | -70.39050 | 3085 ft | 151 kts | 14° |
| 2026-04-25 21:54 | -18.67124 | -70.38765 | 2988 ft | 152 kts | 16° |
| 2026-04-25 21:54 | -18.66141 | -70.38413 | 2872 ft | 147 kts | 22° |
| 2026-04-25 21:55 | -18.65164 | -70.38058 | 2745 ft | 150 kts | 15° |
| 2026-04-25 21:55 | -18.64117 | -70.37758 | 2697 ft | 160 kts | 16° |
| 2026-04-25 21:55 | -18.63034 | -70.37428 | 2730 ft | 161 kts | 15° |
| 2026-04-25 21:55 | -18.61967 | -70.37102 | 2781 ft | 157 kts | 17° |
| 2026-04-25 21:56 | -18.60941 | -70.36736 | 2840 ft | 155 kts | 18° |
| 2026-04-25 21:56 | -18.60269 | -70.36521 | 2781 ft | 151 kts | 13° |
| 2026-04-25 21:56 | -18.58875 | -70.36262 | 2571 ft | 150 kts | 7° |
| 2026-04-25 21:56 | -18.57848 | -70.36078 | 2409 ft | 151 kts | 9° |
| 2026-04-25 21:57 | -18.56756 | -70.35875 | 2249 ft | 167 kts | 9° |
| 2026-04-25 21:57 | -18.55638 | -70.35625 | 2118 ft | 159 kts | 14° |
| 2026-04-25 21:57 | -18.54580 | -70.35344 | 1921 ft | 159 kts | 12° |
| 2026-04-25 21:57 | -18.53453 | -70.35092 | 1704 ft | 172 kts | 12° |
| 2026-04-25 21:58 | -18.52236 | -70.34827 | 1512 ft | 187 kts | 11° |
| 2026-04-25 21:58 | -18.50997 | -70.34557 | 1301 ft | 178 kts | 11° |
| 2026-04-25 21:58 | -18.49822 | -70.34274 | 1294 ft | 168 kts | 12° |
| 2026-04-25 21:58 | -18.48698 | -70.34034 | 1306 ft | 162 kts | 11° |
| 2026-04-25 21:59 | -18.47567 | -70.33813 | 1417 ft | 169 kts | 9° |
| 2026-04-25 21:59 | -18.46419 | -70.33591 | 1709 ft | 167 kts | 10° |
| 2026-04-25 21:59 | -18.45278 | -70.33351 | 1972 ft | 170 kts | 5° |
| 2026-04-25 22:00 | -18.42951 | -70.33247 | 2408 ft | 157 kts | 2° |
| 2026-04-25 22:00 | -18.41892 | -70.33179 | 2651 ft | 152 kts | 4° |
| 2026-04-25 22:00 | -18.40845 | -70.33086 | 2886 ft | 150 kts | 5° |
| 2026-04-25 22:00 | -18.39794 | -70.32954 | 2949 ft | 154 kts | 9° |
| 2026-04-25 22:01 | -18.38771 | -70.32621 | 2756 ft | 154 kts | 21° |
| 2026-04-25 22:01 | -18.37735 | -70.32148 | 2547 ft | 177 kts | 22° |
| 2026-04-25 22:01 | -18.36614 | -70.31650 | 2349 ft | 165 kts | 21° |
| 2026-04-25 22:01 | -18.36254 | -70.31505 | 2297 ft | 165 kts | 19° |
| 2026-04-25 22:02 | -18.34336 | -70.30884 | 2083 ft | 181 kts | 14° |
| 2026-04-25 22:02 | -18.33085 | -70.30830 | 1743 ft | 177 kts | 345° |
| 2026-04-25 22:02 | -18.32168 | -70.31537 | 1257 ft | 164 kts | 301° |
| 2026-04-25 22:02 | -18.31712 | -70.32595 | 790 ft | 152 kts | 259° |
| 2026-04-25 22:03 | -18.32328 | -70.33257 | 580 ft | 130 kts | 185° |
| 2026-04-25 22:03 | -18.33284 | -70.33318 | 393 ft | 142 kts | 191° |
| 2026-04-25 22:03 | -18.34178 | -70.33616 | 221 ft | 127 kts | 198° |
| 2026-04-25 22:03 | -18.34909 | -70.33895 | 183 ft | 85 kts | 201° |
| 2026-04-25 22:04 | -18.35177 | -70.33999 | 182 ft | 1 kts | 200° |
| 2026-04-25 22:04 | -18.35199 | -70.34007 | 181 ft | 11 kts | 200° |
| 2026-04-25 22:04 | -18.35341 | -70.34059 | 177 ft | 26 kts | 199° |
| 2026-04-25 22:04 | -18.35513 | -70.34119 | 174 ft | 25 kts | 198° |
| 2026-04-25 22:05 | -18.35628 | -70.34157 | 170 ft | 26 kts | 198° |
| 2026-04-25 22:05 | -18.35769 | -70.34167 | 167 ft | 11 kts | 138° |
| 2026-04-25 22:05 | -18.35788 | -70.34115 | 164 ft | 13 kts | 98° |
| 2026-04-25 22:05 | -18.35747 | -70.34034 | 164 ft | 13 kts | 30° |
| 2026-04-25 22:06 | -18.35675 | -70.33998 | 167 ft | 10 kts | 25° |
| 2026-04-25 22:06 | -18.35631 | -70.33980 | 180 ft | 4 kts | 21° |
| 2026-04-25 22:06 | -18.35587 | -70.33962 | 172 ft | 9 kts | 20° |
| 2026-04-25 22:06 | -18.35529 | -70.33939 | 174 ft | 9 kts | 20° |
| 2026-04-25 22:07 | -18.35464 | -70.33915 | 176 ft | 10 kts | 18° |
| 2026-04-25 22:07 | -18.35417 | -70.33899 | 179 ft | 12 kts | 19° |
| 2026-04-25 22:07 | -18.35306 | -70.33860 | 180 ft | 13 kts | 19° |
| 2026-04-25 22:07 | -18.35232 | -70.33831 | 181 ft | 10 kts | 20° |
| 2026-04-25 22:08 | -18.35173 | -70.33808 | 181 ft | 8 kts | 21° |
| 2026-04-25 22:08 | -18.35115 | -70.33786 | 181 ft | 10 kts | 18° |
| 2026-04-25 22:08 | -18.35057 | -70.33760 | 181 ft | 5 kts | 52° |
| 2026-04-25 22:08 | -18.35060 | -70.33745 | 181 ft | 3 kts | 101° |
| 2026-04-25 22:09 | -18.35066 | -70.33723 | 181 ft | 0 kts | 111° |
| 2026-04-25 22:09 | -18.35069 | -70.33716 | 181 ft | 1 kts | 109° |
| 2026-04-25 22:09 | -18.35073 | -70.33703 | 181 ft | 2 kts | 109° |
| 2026-04-25 22:09 | -18.35076 | -70.33694 | 181 ft | 0 kts | 109° |